Etusivu
METAR-TAF:

METAR-TAF

Lentoasemat :

Portage Glacier, Alaska, Yhdysvallat

Leveyspiiri: 60-47N, Pituuspiiri: 148-50W, korkeus merenpinnasta: 29 m

Tämänhetkinen sää

Tämä raportti tehtiin 50 minuuttia sitten, kello 09.53 UTC
tyyntä
Lämpötila 0°C
Kosteus 100%
Ilmanpaine 1015 hPa
Näkyvyys: 16.1 km
selkeää

METAR: PATO 210953Z AUTO 00000KT 10SM CLR 00/00 A2998 RMK AO2 SLP152 T00000000 TSNO

Aika: 02:43 (10:43 UTC)


TAF: puuttuu

Säähavainnot ja -ennusteet yli 4000 lentoasemalta (METAR- ja TAF-raportit).

Käytössä olevat sääasemat on merkitty karttaan keltaisilla ja punaisilla pisteillä.

Aseta hiiri pisteen päälle nähdäksesi sääaseman nimen.

Klikkaa sitten nähdäksesi säähavainnot ja -ennusteet.

Kartan vaihtaminen: klikkaa mustalla rastilla varustettuja vihreitä pisteitä, niin voit zoomata sisään; viivalla varustettua vihreää pistettä, niin voit zoomata ulos tai vihreitä nuolia, niin pääset viereisille kartoille.


METAR-TAF: